sensor_id;sensor_type;location;lat;lon;timestamp;P1;durP1;ratioP1;P2;durP2;ratioP2
2850;SDS011;1433;49.976;8.342;2023-07-09T00:02:12;7.93;;;4.67;;
2850;SDS011;1433;49.976;8.342;2023-07-09T00:04:39;5.70;;;3.90;;
2850;SDS011;1433;49.976;8.342;2023-07-09T00:07:11;5.70;;;3.63;;
2850;SDS011;1433;49.976;8.342;2023-07-09T00:09:36;5.37;;;3.73;;
2850;SDS011;1433;49.976;8.342;2023-07-09T00:12:02;3.70;;;3.37;;
2850;SDS011;1433;49.976;8.342;2023-07-09T00:14:29;8.70;;;3.93;;
2850;SDS011;1433;49.976;8.342;2023-07-09T00:16:55;8.50;;;4.13;;
2850;SDS011;1433;49.976;8.342;2023-07-09T00:19:21;5.67;;;4.40;;
2850;SDS011;1433;49.976;8.342;2023-07-09T00:21:53;4.10;;;3.33;;
2850;SDS011;1433;49.976;8.342;2023-07-09T00:24:20;3.77;;;3.47;;
2850;SDS011;1433;49.976;8.342;2023-07-09T00:26:47;5.90;;;3.67;;
2850;SDS011;1433;49.976;8.342;2023-07-09T00:29:15;7.53;;;4.70;;
2850;SDS011;1433;49.976;8.342;2023-07-09T00:31:42;4.00;;;3.70;;
2850;SDS011;1433;49.976;8.342;2023-07-09T00:34:09;6.27;;;3.93;;
2850;SDS011;1433;49.976;8.342;2023-07-09T00:36:40;6.60;;;3.30;;
2850;SDS011;1433;49.976;8.342;2023-07-09T00:39:27;4.60;;;3.20;;
2850;SDS011;1433;49.976;8.342;2023-07-09T00:41:44;6.20;;;4.60;;
2850;SDS011;1433;49.976;8.342;2023-07-09T00:52:01;5.90;;;4.90;;
2850;SDS011;1433;49.976;8.342;2023-07-09T00:54:37;5.87;;;5.20;;
2850;SDS011;1433;49.976;8.342;2023-07-09T00:57:13;9.23;;;5.77;;
2850;SDS011;1433;49.976;8.342;2023-07-09T00:59:37;7.03;;;5.03;;
2850;SDS011;1433;49.976;8.342;2023-07-09T01:02:05;5.73;;;5.07;;
2850;SDS011;1433;49.976;8.342;2023-07-09T01:04:33;4.87;;;4.30;;
2850;SDS011;1433;49.976;8.342;2023-07-09T01:07:00;5.40;;;4.90;;
2850;SDS011;1433;49.976;8.342;2023-07-09T01:09:26;8.80;;;6.20;;
2850;SDS011;1433;49.976;8.342;2023-07-09T01:11:52;5.70;;;4.20;;
2850;SDS011;1433;49.976;8.342;2023-07-09T01:14:21;6.50;;;5.30;;
2850;SDS011;1433;49.976;8.342;2023-07-09T01:17:00;8.03;;;7.00;;
2850;SDS011;1433;49.976;8.342;2023-07-09T01:19:25;7.23;;;6.53;;
2850;SDS011;1433;49.976;8.342;2023-07-09T01:21:55;8.87;;;7.00;;
2850;SDS011;1433;49.976;8.342;2023-07-09T01:27:15;6.20;;;5.60;;
2850;SDS011;1433;49.976;8.342;2023-07-09T01:29:44;6.47;;;5.87;;
2850;SDS011;1433;49.976;8.342;2023-07-09T01:32:15;7.60;;;6.20;;
2850;SDS011;1433;49.976;8.342;2023-07-09T01:34:45;8.20;;;5.80;;
2850;SDS011;1433;49.976;8.342;2023-07-09T01:37:16;5.33;;;4.80;;
2850;SDS011;1433;49.976;8.342;2023-07-09T01:39:44;6.50;;;5.90;;
2850;SDS011;1433;49.976;8.342;2023-07-09T01:42:10;5.77;;;4.93;;
2850;SDS011;1433;49.976;8.342;2023-07-09T01:44:37;6.50;;;5.90;;
2850;SDS011;1433;49.976;8.342;2023-07-09T01:47:04;7.20;;;6.47;;
2850;SDS011;1433;49.976;8.342;2023-07-09T01:49:31;7.63;;;6.00;;
2850;SDS011;1433;49.976;8.342;2023-07-09T01:52:03;6.17;;;5.53;;
2850;SDS011;1433;49.976;8.342;2023-07-09T01:54:30;7.20;;;6.37;;
2850;SDS011;1433;49.976;8.342;2023-07-09T01:57:13;6.37;;;5.77;;
2850;SDS011;1433;49.976;8.342;2023-07-09T01:59:43;8.63;;;6.70;;
2850;SDS011;1433;49.976;8.342;2023-07-09T02:02:10;7.50;;;6.80;;
2850;SDS011;1433;49.976;8.342;2023-07-09T02:04:38;6.87;;;6.17;;
2850;SDS011;1433;49.976;8.342;2023-07-09T02:07:04;6.67;;;6.00;;
2850;SDS011;1433;49.976;8.342;2023-07-09T02:09:31;4.93;;;4.37;;
2850;SDS011;1433;49.976;8.342;2023-07-09T02:11:57;6.93;;;5.70;;
2850;SDS011;1433;49.976;8.342;2023-07-09T02:14:23;5.30;;;4.30;;
2850;SDS011;1433;49.976;8.342;2023-07-09T02:16:50;5.97;;;5.03;;
2850;SDS011;1433;49.976;8.342;2023-07-09T02:19:17;6.13;;;4.50;;
2850;SDS011;1433;49.976;8.342;2023-07-09T02:21:44;5.40;;;4.30;;
2850;SDS011;1433;49.976;8.342;2023-07-09T02:24:10;8.50;;;5.53;;
2850;SDS011;1433;49.976;8.342;2023-07-09T02:26:36;5.77;;;4.10;;
2850;SDS011;1433;49.976;8.342;2023-07-09T02:29:02;5.27;;;4.60;;
2850;SDS011;1433;49.976;8.342;2023-07-09T02:31:28;6.17;;;5.00;;
2850;SDS011;1433;49.976;8.342;2023-07-09T02:33:56;7.33;;;4.30;;
2850;SDS011;1433;49.976;8.342;2023-07-09T02:36:23;6.00;;;4.87;;
2850;SDS011;1433;49.976;8.342;2023-07-09T02:38:50;5.40;;;4.60;;
2850;SDS011;1433;49.976;8.342;2023-07-09T02:41:17;5.13;;;4.63;;
2850;SDS011;1433;49.976;8.342;2023-07-09T02:43:43;5.03;;;3.80;;
2850;SDS011;1433;49.976;8.342;2023-07-09T02:46:10;4.13;;;3.30;;
2850;SDS011;1433;49.976;8.342;2023-07-09T02:48:36;5.20;;;4.70;;
2850;SDS011;1433;49.976;8.342;2023-07-09T02:51:02;4.57;;;4.13;;
2850;SDS011;1433;49.976;8.342;2023-07-09T02:53:29;6.17;;;4.57;;
2850;SDS011;1433;49.976;8.342;2023-07-09T02:55:56;4.90;;;4.00;;
2850;SDS011;1433;49.976;8.342;2023-07-09T02:58:22;5.03;;;4.60;;
2850;SDS011;1433;49.976;8.342;2023-07-09T03:00:49;4.70;;;4.10;;
2850;SDS011;1433;49.976;8.342;2023-07-09T03:03:19;4.00;;;3.60;;
2850;SDS011;1433;49.976;8.342;2023-07-09T03:05:46;8.00;;;5.00;;
2850;SDS011;1433;49.976;8.342;2023-07-09T03:08:13;5.23;;;4.83;;
2850;SDS011;1433;49.976;8.342;2023-07-09T03:10:40;6.80;;;4.90;;
2850;SDS011;1433;49.976;8.342;2023-07-09T03:13:07;6.27;;;4.00;;
2850;SDS011;1433;49.976;8.342;2023-07-09T03:15:33;5.63;;;5.13;;
2850;SDS011;1433;49.976;8.342;2023-07-09T03:17:59;4.47;;;4.07;;
2850;SDS011;1433;49.976;8.342;2023-07-09T03:20:25;7.63;;;4.23;;
2850;SDS011;1433;49.976;8.342;2023-07-09T03:22:51;4.43;;;3.90;;
2850;SDS011;1433;49.976;8.342;2023-07-09T03:25:17;5.80;;;4.60;;
2850;SDS011;1433;49.976;8.342;2023-07-09T03:27:43;4.10;;;3.70;;
2850;SDS011;1433;49.976;8.342;2023-07-09T03:30:11;5.63;;;5.00;;
2850;SDS011;1433;49.976;8.342;2023-07-09T03:32:38;6.03;;;4.27;;
2850;SDS011;1433;49.976;8.342;2023-07-09T03:35:04;5.47;;;3.80;;
2850;SDS011;1433;49.976;8.342;2023-07-09T03:37:30;5.27;;;4.57;;
2850;SDS011;1433;49.976;8.342;2023-07-09T03:39:56;5.80;;;4.30;;
2850;SDS011;1433;49.976;8.342;2023-07-09T03:42:23;6.93;;;4.90;;
2850;SDS011;1433;49.976;8.342;2023-07-09T03:44:49;6.13;;;5.40;;
2850;SDS011;1433;49.976;8.342;2023-07-09T03:47:15;4.00;;;3.60;;
2850;SDS011;1433;49.976;8.342;2023-07-09T03:49:41;7.40;;;3.90;;
2850;SDS011;1433;49.976;8.342;2023-07-09T03:52:08;5.07;;;3.87;;
2850;SDS011;1433;49.976;8.342;2023-07-09T03:54:34;4.97;;;4.00;;
2850;SDS011;1433;49.976;8.342;2023-07-09T03:57:00;5.23;;;4.73;;
2850;SDS011;1433;49.976;8.342;2023-07-09T03:59:26;7.13;;;3.53;;
2850;SDS011;1433;49.976;8.342;2023-07-09T04:01:52;6.97;;;4.30;;
2850;SDS011;1433;49.976;8.342;2023-07-09T04:04:19;6.40;;;5.00;;
2850;SDS011;1433;49.976;8.342;2023-07-09T04:06:46;5.03;;;4.40;;
2850;SDS011;1433;49.976;8.342;2023-07-09T04:09:13;5.07;;;4.40;;
2850;SDS011;1433;49.976;8.342;2023-07-09T04:11:39;6.20;;;5.13;;
2850;SDS011;1433;49.976;8.342;2023-07-09T04:14:05;5.50;;;4.27;;
2850;SDS011;1433;49.976;8.342;2023-07-09T04:16:32;7.33;;;4.67;;
2850;SDS011;1433;49.976;8.342;2023-07-09T04:18:58;6.63;;;5.03;;
2850;SDS011;1433;49.976;8.342;2023-07-09T04:21:25;9.27;;;5.77;;
2850;SDS011;1433;49.976;8.342;2023-07-09T04:23:51;5.03;;;4.57;;
2850;SDS011;1433;49.976;8.342;2023-07-09T04:26:17;6.10;;;4.90;;
2850;SDS011;1433;49.976;8.342;2023-07-09T04:28:43;6.80;;;5.07;;
2850;SDS011;1433;49.976;8.342;2023-07-09T04:31:09;5.47;;;4.97;;
2850;SDS011;1433;49.976;8.342;2023-07-09T04:33:35;7.97;;;6.50;;
2850;SDS011;1433;49.976;8.342;2023-07-09T04:36:01;6.00;;;5.03;;
2850;SDS011;1433;49.976;8.342;2023-07-09T04:38:28;11.00;;;6.30;;
2850;SDS011;1433;49.976;8.342;2023-07-09T04:40:54;7.10;;;6.37;;
2850;SDS011;1433;49.976;8.342;2023-07-09T04:43:20;9.57;;;5.90;;
2850;SDS011;1433;49.976;8.342;2023-07-09T04:45:47;8.17;;;6.70;;
2850;SDS011;1433;49.976;8.342;2023-07-09T04:48:15;10.10;;;5.90;;
2850;SDS011;1433;49.976;8.342;2023-07-09T04:50:41;6.93;;;5.23;;
2850;SDS011;1433;49.976;8.342;2023-07-09T04:53:07;6.40;;;5.80;;
2850;SDS011;1433;49.976;8.342;2023-07-09T04:55:33;9.60;;;5.93;;
2850;SDS011;1433;49.976;8.342;2023-07-09T04:57:59;6.10;;;5.27;;
2850;SDS011;1433;49.976;8.342;2023-07-09T05:00:25;6.27;;;5.60;;
2850;SDS011;1433;49.976;8.342;2023-07-09T05:02:51;6.10;;;5.60;;
2850;SDS011;1433;49.976;8.342;2023-07-09T05:05:26;7.50;;;6.40;;
2850;SDS011;1433;49.976;8.342;2023-07-09T05:07:52;7.90;;;5.50;;
2850;SDS011;1433;49.976;8.342;2023-07-09T05:10:18;6.63;;;5.40;;
2850;SDS011;1433;49.976;8.342;2023-07-09T05:12:48;6.83;;;6.10;;
2850;SDS011;1433;49.976;8.342;2023-07-09T05:15:17;7.40;;;5.73;;
2850;SDS011;1433;49.976;8.342;2023-07-09T05:17:44;6.00;;;5.00;;
2850;SDS011;1433;49.976;8.342;2023-07-09T05:20:11;6.60;;;5.17;;
2850;SDS011;1433;49.976;8.342;2023-07-09T05:22:38;5.53;;;5.03;;
2850;SDS011;1433;49.976;8.342;2023-07-09T05:25:04;10.50;;;5.87;;
2850;SDS011;1433;49.976;8.342;2023-07-09T05:27:31;5.73;;;5.20;;
2850;SDS011;1433;49.976;8.342;2023-07-09T05:30:04;8.07;;;5.10;;
2850;SDS011;1433;49.976;8.342;2023-07-09T05:32:31;6.23;;;5.63;;
2850;SDS011;1433;49.976;8.342;2023-07-09T05:34:57;9.87;;;5.97;;
2850;SDS011;1433;49.976;8.342;2023-07-09T05:37:23;6.53;;;5.10;;
2850;SDS011;1433;49.976;8.342;2023-07-09T05:39:49;6.97;;;6.27;;
2850;SDS011;1433;49.976;8.342;2023-07-09T05:42:15;15.60;;;5.20;;
2850;SDS011;1433;49.976;8.342;2023-07-09T05:44:41;8.00;;;5.10;;
2850;SDS011;1433;49.976;8.342;2023-07-09T05:47:08;5.73;;;4.53;;
2850;SDS011;1433;49.976;8.342;2023-07-09T05:49:34;7.90;;;6.23;;
2850;SDS011;1433;49.976;8.342;2023-07-09T05:52:00;9.70;;;5.40;;
2850;SDS011;1433;49.976;8.342;2023-07-09T05:54:26;4.23;;;3.80;;
2850;SDS011;1433;49.976;8.342;2023-07-09T05:56:52;5.10;;;4.70;;
2850;SDS011;1433;49.976;8.342;2023-07-09T05:59:19;5.73;;;4.70;;
2850;SDS011;1433;49.976;8.342;2023-07-09T06:01:45;6.07;;;4.57;;
2850;SDS011;1433;49.976;8.342;2023-07-09T06:04:11;6.70;;;4.80;;
2850;SDS011;1433;49.976;8.342;2023-07-09T06:06:40;9.17;;;5.30;;
2850;SDS011;1433;49.976;8.342;2023-07-09T06:09:07;5.47;;;4.10;;
2850;SDS011;1433;49.976;8.342;2023-07-09T06:11:34;5.00;;;4.50;;
2850;SDS011;1433;49.976;8.342;2023-07-09T06:14:01;4.63;;;4.17;;
2850;SDS011;1433;49.976;8.342;2023-07-09T06:16:27;6.53;;;4.63;;
2850;SDS011;1433;49.976;8.342;2023-07-09T06:18:53;5.90;;;4.53;;
2850;SDS011;1433;49.976;8.342;2023-07-09T06:21:19;4.67;;;4.23;;
2850;SDS011;1433;49.976;8.342;2023-07-09T06:23:46;5.63;;;3.70;;
2850;SDS011;1433;49.976;8.342;2023-07-09T06:26:12;5.23;;;3.47;;
2850;SDS011;1433;49.976;8.342;2023-07-09T06:28:38;4.60;;;4.20;;
2850;SDS011;1433;49.976;8.342;2023-07-09T06:31:06;3.90;;;3.50;;
2850;SDS011;1433;49.976;8.342;2023-07-09T06:33:32;4.60;;;4.03;;
2850;SDS011;1433;49.976;8.342;2023-07-09T06:35:59;9.10;;;4.57;;
2850;SDS011;1433;49.976;8.342;2023-07-09T06:38:27;4.10;;;3.30;;
2850;SDS011;1433;49.976;8.342;2023-07-09T06:40:55;3.77;;;3.47;;
2850;SDS011;1433;49.976;8.342;2023-07-09T06:43:22;7.33;;;3.53;;
2850;SDS011;1433;49.976;8.342;2023-07-09T06:45:52;4.77;;;4.33;;
2850;SDS011;1433;49.976;8.342;2023-07-09T06:48:20;4.50;;;3.87;;
2850;SDS011;1433;49.976;8.342;2023-07-09T06:50:47;5.60;;;4.10;;
2850;SDS011;1433;49.976;8.342;2023-07-09T06:53:14;5.47;;;3.83;;
2850;SDS011;1433;49.976;8.342;2023-07-09T06:55:40;4.17;;;3.27;;
2850;SDS011;1433;49.976;8.342;2023-07-09T06:58:06;6.37;;;4.90;;
2850;SDS011;1433;49.976;8.342;2023-07-09T07:00:33;4.90;;;3.97;;
2850;SDS011;1433;49.976;8.342;2023-07-09T07:03:01;5.40;;;3.40;;
2850;SDS011;1433;49.976;8.342;2023-07-09T07:05:27;5.27;;;3.63;;
2850;SDS011;1433;49.976;8.342;2023-07-09T07:07:53;3.87;;;3.37;;
2850;SDS011;1433;49.976;8.342;2023-07-09T07:10:19;4.70;;;3.50;;
2850;SDS011;1433;49.976;8.342;2023-07-09T07:12:46;3.77;;;3.10;;
2850;SDS011;1433;49.976;8.342;2023-07-09T07:15:15;5.97;;;4.20;;
2850;SDS011;1433;49.976;8.342;2023-07-09T07:17:42;6.37;;;3.90;;
2850;SDS011;1433;49.976;8.342;2023-07-09T07:20:10;4.47;;;3.37;;
2850;SDS011;1433;49.976;8.342;2023-07-09T07:22:37;3.97;;;3.43;;
2850;SDS011;1433;49.976;8.342;2023-07-09T07:25:04;3.60;;;2.70;;
2850;SDS011;1433;49.976;8.342;2023-07-09T07:27:31;4.50;;;3.57;;
2850;SDS011;1433;49.976;8.342;2023-07-09T07:29:57;4.57;;;3.47;;
2850;SDS011;1433;49.976;8.342;2023-07-09T07:32:24;11.47;;;3.57;;
2850;SDS011;1433;49.976;8.342;2023-07-09T07:34:50;4.57;;;3.80;;
2850;SDS011;1433;49.976;8.342;2023-07-09T07:37:18;4.33;;;3.70;;
2850;SDS011;1433;49.976;8.342;2023-07-09T07:39:48;4.30;;;3.47;;
2850;SDS011;1433;49.976;8.342;2023-07-09T07:42:14;9.47;;;3.57;;
2850;SDS011;1433;49.976;8.342;2023-07-09T07:44:40;5.63;;;3.83;;
2850;SDS011;1433;49.976;8.342;2023-07-09T07:47:06;4.47;;;4.03;;
2850;SDS011;1433;49.976;8.342;2023-07-09T07:49:33;8.77;;;3.77;;
2850;SDS011;1433;49.976;8.342;2023-07-09T07:51:59;3.70;;;3.20;;
2850;SDS011;1433;49.976;8.342;2023-07-09T07:54:27;5.23;;;4.10;;
2850;SDS011;1433;49.976;8.342;2023-07-09T07:56:53;3.83;;;3.47;;
2850;SDS011;1433;49.976;8.342;2023-07-09T07:59:19;4.50;;;3.97;;
2850;SDS011;1433;49.976;8.342;2023-07-09T08:01:45;5.07;;;3.90;;
2850;SDS011;1433;49.976;8.342;2023-07-09T08:04:11;3.77;;;3.47;;
2850;SDS011;1433;49.976;8.342;2023-07-09T08:06:37;7.93;;;4.10;;
2850;SDS011;1433;49.976;8.342;2023-07-09T08:09:03;3.60;;;3.03;;
2850;SDS011;1433;49.976;8.342;2023-07-09T08:11:29;3.53;;;3.23;;
2850;SDS011;1433;49.976;8.342;2023-07-09T08:13:58;4.87;;;4.47;;
2850;SDS011;1433;49.976;8.342;2023-07-09T08:16:24;3.77;;;3.13;;
2850;SDS011;1433;49.976;8.342;2023-07-09T08:18:50;4.70;;;3.40;;
2850;SDS011;1433;49.976;8.342;2023-07-09T08:21:17;4.87;;;3.23;;
2850;SDS011;1433;49.976;8.342;2023-07-09T08:23:44;3.60;;;3.00;;
2850;SDS011;1433;49.976;8.342;2023-07-09T08:26:11;3.60;;;2.60;;
2850;SDS011;1433;49.976;8.342;2023-07-09T08:28:37;4.60;;;4.20;;
2850;SDS011;1433;49.976;8.342;2023-07-09T08:31:04;5.10;;;4.10;;
2850;SDS011;1433;49.976;8.342;2023-07-09T08:33:30;5.37;;;3.13;;
2850;SDS011;1433;49.976;8.342;2023-07-09T08:35:56;3.73;;;2.93;;
2850;SDS011;1433;49.976;8.342;2023-07-09T08:38:23;4.60;;;3.33;;
2850;SDS011;1433;49.976;8.342;2023-07-09T08:40:57;5.80;;;4.37;;
2850;SDS011;1433;49.976;8.342;2023-07-09T08:46:48;5.17;;;3.60;;
2850;SDS011;1433;49.976;8.342;2023-07-09T08:49:18;6.87;;;3.57;;
2850;SDS011;1433;49.976;8.342;2023-07-09T08:51:50;4.67;;;3.13;;
2850;SDS011;1433;49.976;8.342;2023-07-09T08:54:21;4.93;;;3.47;;
2850;SDS011;1433;49.976;8.342;2023-07-09T08:56:53;3.67;;;3.37;;
2850;SDS011;1433;49.976;8.342;2023-07-09T08:59:20;4.20;;;3.80;;
2850;SDS011;1433;49.976;8.342;2023-07-09T09:01:54;3.23;;;2.93;;
2850;SDS011;1433;49.976;8.342;2023-07-09T09:04:27;5.40;;;4.50;;
2850;SDS011;1433;49.976;8.342;2023-07-09T09:07:00;4.23;;;3.63;;
2850;SDS011;1433;49.976;8.342;2023-07-09T09:09:45;3.90;;;3.60;;
2850;SDS011;1433;49.976;8.342;2023-07-09T09:12:15;5.20;;;4.40;;
2850;SDS011;1433;49.976;8.342;2023-07-09T09:14:44;7.27;;;4.93;;
2850;SDS011;1433;49.976;8.342;2023-07-09T09:17:17;6.40;;;4.83;;
2850;SDS011;1433;49.976;8.342;2023-07-09T09:19:55;6.40;;;4.33;;
2850;SDS011;1433;49.976;8.342;2023-07-09T09:22:24;7.20;;;3.60;;
2850;SDS011;1433;49.976;8.342;2023-07-09T09:27:46;4.13;;;3.70;;
2850;SDS011;1433;49.976;8.342;2023-07-09T09:30:17;5.40;;;4.90;;
2850;SDS011;1433;49.976;8.342;2023-07-09T09:32:47;5.93;;;4.80;;
2850;SDS011;1433;49.976;8.342;2023-07-09T09:35:16;3.43;;;3.13;;
2850;SDS011;1433;49.976;8.342;2023-07-09T09:37:45;4.40;;;3.77;;
2850;SDS011;1433;49.976;8.342;2023-07-09T09:40:22;3.90;;;3.50;;
2850;SDS011;1433;49.976;8.342;2023-07-09T09:42:50;5.33;;;3.50;;
2850;SDS011;1433;49.976;8.342;2023-07-09T09:45:20;6.37;;;4.43;;
2850;SDS011;1433;49.976;8.342;2023-07-09T09:47:49;4.83;;;3.60;;
2850;SDS011;1433;49.976;8.342;2023-07-09T09:50:15;4.93;;;3.90;;
2850;SDS011;1433;49.976;8.342;2023-07-09T09:52:47;6.33;;;3.30;;
2850;SDS011;1433;49.976;8.342;2023-07-09T09:55:22;4.30;;;2.90;;
2850;SDS011;1433;49.976;8.342;2023-07-09T09:57:50;4.20;;;3.27;;
2850;SDS011;1433;49.976;8.342;2023-07-09T10:00:18;3.90;;;3.60;;
2850;SDS011;1433;49.976;8.342;2023-07-09T10:02:47;6.10;;;3.77;;
2850;SDS011;1433;49.976;8.342;2023-07-09T10:05:14;9.40;;;4.47;;
2850;SDS011;1433;49.976;8.342;2023-07-09T10:08:45;6.53;;;2.90;;
2850;SDS011;1433;49.976;8.342;2023-07-09T10:10:25;4.20;;;3.70;;
2850;SDS011;1433;49.976;8.342;2023-07-09T10:15:49;6.00;;;3.50;;
2850;SDS011;1433;49.976;8.342;2023-07-09T10:21:23;4.30;;;3.87;;
2850;SDS011;1433;49.976;8.342;2023-07-09T10:26:48;4.93;;;3.90;;
2850;SDS011;1433;49.976;8.342;2023-07-09T10:35:07;3.90;;;3.57;;
2850;SDS011;1433;49.976;8.342;2023-07-09T10:37:55;3.90;;;3.23;;
2850;SDS011;1433;49.976;8.342;2023-07-09T10:40:30;3.50;;;2.60;;
2850;SDS011;1433;49.976;8.342;2023-07-09T10:43:00;3.70;;;3.40;;
2850;SDS011;1433;49.976;8.342;2023-07-09T10:45:29;5.23;;;3.30;;
2850;SDS011;1433;49.976;8.342;2023-07-09T10:47:59;2.90;;;2.67;;
2850;SDS011;1433;49.976;8.342;2023-07-09T10:50:33;6.47;;;3.50;;
2850;SDS011;1433;49.976;8.342;2023-07-09T10:53:04;3.20;;;2.90;;
2850;SDS011;1433;49.976;8.342;2023-07-09T11:01:04;4.83;;;3.53;;
2850;SDS011;1433;49.976;8.342;2023-07-09T11:03:39;3.90;;;2.70;;
2850;SDS011;1433;49.976;8.342;2023-07-09T11:06:24;4.27;;;3.37;;
2850;SDS011;1433;49.976;8.342;2023-07-09T11:08:55;4.93;;;4.53;;
2850;SDS011;1433;49.976;8.342;2023-07-09T11:11:25;3.67;;;3.30;;
2850;SDS011;1433;49.976;8.342;2023-07-09T11:13:53;3.33;;;3.10;;
2850;SDS011;1433;49.976;8.342;2023-07-09T11:16:27;3.77;;;3.30;;
2850;SDS011;1433;49.976;8.342;2023-07-09T11:18:57;3.37;;;3.08;;
2850;SDS011;1433;49.976;8.342;2023-07-09T11:21:25;3.63;;;3.33;;
2850;SDS011;1433;49.976;8.342;2023-07-09T11:23:56;2.92;;;2.70;;
2850;SDS011;1433;49.976;8.342;2023-07-09T11:28:55;3.85;;;3.45;;
2850;SDS011;1433;49.976;8.342;2023-07-09T11:37:31;3.65;;;3.27;;
2850;SDS011;1433;49.976;8.342;2023-07-09T11:39:19;3.12;;;2.58;;
2850;SDS011;1433;49.976;8.342;2023-07-09T11:41:48;3.83;;;3.52;;
2850;SDS011;1433;49.976;8.342;2023-07-09T11:44:21;3.62;;;3.33;;
2850;SDS011;1433;49.976;8.342;2023-07-09T11:49:33;3.12;;;2.92;;
2850;SDS011;1433;49.976;8.342;2023-07-09T11:52:02;3.17;;;2.95;;
2850;SDS011;1433;49.976;8.342;2023-07-09T11:54:34;4.10;;;3.80;;
2850;SDS011;1433;49.976;8.342;2023-07-09T11:57:02;2.45;;;2.30;;
2850;SDS011;1433;49.976;8.342;2023-07-09T11:59:29;2.87;;;2.52;;
2850;SDS011;1433;49.976;8.342;2023-07-09T12:01:55;3.02;;;2.83;;
2850;SDS011;1433;49.976;8.342;2023-07-09T12:04:27;3.47;;;3.00;;
2850;SDS011;1433;49.976;8.342;2023-07-09T12:06:56;3.50;;;3.20;;
2850;SDS011;1433;49.976;8.342;2023-07-09T12:09:24;3.83;;;3.22;;
2850;SDS011;1433;49.976;8.342;2023-07-09T12:11:50;3.33;;;3.00;;
2850;SDS011;1433;49.976;8.342;2023-07-09T12:14:17;4.85;;;2.98;;
2850;SDS011;1433;49.976;8.342;2023-07-09T12:16:46;3.87;;;3.17;;
2850;SDS011;1433;49.976;8.342;2023-07-09T12:19:15;3.25;;;3.02;;
2850;SDS011;1433;49.976;8.342;2023-07-09T12:21:45;4.50;;;3.72;;
2850;SDS011;1433;49.976;8.342;2023-07-09T12:24:15;3.52;;;3.22;;
2850;SDS011;1433;49.976;8.342;2023-07-09T12:26:53;3.90;;;2.80;;
2850;SDS011;1433;49.976;8.342;2023-07-09T12:29:20;7.03;;;3.10;;
2850;SDS011;1433;49.976;8.342;2023-07-09T12:31:52;3.85;;;2.90;;
2850;SDS011;1433;49.976;8.342;2023-07-09T12:34:18;2.67;;;2.47;;
2850;SDS011;1433;49.976;8.342;2023-07-09T12:36:46;3.35;;;3.05;;
2850;SDS011;1433;49.976;8.342;2023-07-09T12:39:15;3.37;;;3.00;;
2850;SDS011;1433;49.976;8.342;2023-07-09T12:41:44;2.80;;;2.50;;
2850;SDS011;1433;49.976;8.342;2023-07-09T12:44:18;4.50;;;3.70;;
2850;SDS011;1433;49.976;8.342;2023-07-09T12:46:46;3.90;;;2.90;;
2850;SDS011;1433;49.976;8.342;2023-07-09T12:52:00;3.45;;;3.20;;
2850;SDS011;1433;49.976;8.342;2023-07-09T12:54:30;3.15;;;2.80;;
2850;SDS011;1433;49.976;8.342;2023-07-09T12:56:58;3.70;;;3.35;;
2850;SDS011;1433;49.976;8.342;2023-07-09T12:59:27;3.17;;;2.95;;
2850;SDS011;1433;49.976;8.342;2023-07-09T13:04:44;3.30;;;2.50;;
2850;SDS011;1433;49.976;8.342;2023-07-09T13:10:03;3.35;;;3.05;;
2850;SDS011;1433;49.976;8.342;2023-07-09T13:12:38;4.00;;;3.65;;
2850;SDS011;1433;49.976;8.342;2023-07-09T13:15:04;3.85;;;3.55;;
2850;SDS011;1433;49.976;8.342;2023-07-09T13:17:32;3.27;;;2.95;;
2850;SDS011;1433;49.976;8.342;2023-07-09T13:19:58;3.47;;;3.17;;
2850;SDS011;1433;49.976;8.342;2023-07-09T13:22:25;3.52;;;3.22;;
2850;SDS011;1433;49.976;8.342;2023-07-09T13:24:51;4.37;;;2.95;;
2850;SDS011;1433;49.976;8.342;2023-07-09T13:27:18;3.47;;;2.50;;
2850;SDS011;1433;49.976;8.342;2023-07-09T13:29:45;3.35;;;3.15;;
2850;SDS011;1433;49.976;8.342;2023-07-09T13:32:13;4.10;;;3.15;;
2850;SDS011;1433;49.976;8.342;2023-07-09T13:34:40;4.45;;;3.40;;
2850;SDS011;1433;49.976;8.342;2023-07-09T13:37:13;3.35;;;3.05;;
2850;SDS011;1433;49.976;8.342;2023-07-09T13:39:41;3.15;;;2.85;;
2850;SDS011;1433;49.976;8.342;2023-07-09T13:42:09;5.80;;;3.15;;
2850;SDS011;1433;49.976;8.342;2023-07-09T13:44:40;3.45;;;2.87;;
2850;SDS011;1433;49.976;8.342;2023-07-09T13:47:12;3.45;;;3.15;;
2850;SDS011;1433;49.976;8.342;2023-07-09T13:49:38;4.90;;;3.10;;
2850;SDS011;1433;49.976;8.342;2023-07-09T13:52:04;4.83;;;3.42;;
2850;SDS011;1433;49.976;8.342;2023-07-09T13:54:32;3.83;;;3.25;;
2850;SDS011;1433;49.976;8.342;2023-07-09T13:57:06;3.45;;;3.15;;
2850;SDS011;1433;49.976;8.342;2023-07-09T13:59:35;3.40;;;3.10;;
2850;SDS011;1433;49.976;8.342;2023-07-09T14:02:01;3.25;;;3.05;;
2850;SDS011;1433;49.976;8.342;2023-07-09T14:04:28;3.20;;;2.90;;
2850;SDS011;1433;49.976;8.342;2023-07-09T14:06:54;3.27;;;2.98;;
2850;SDS011;1433;49.976;8.342;2023-07-09T14:09:21;3.60;;;3.30;;
2850;SDS011;1433;49.976;8.342;2023-07-09T14:11:47;3.67;;;3.37;;
2850;SDS011;1433;49.976;8.342;2023-07-09T14:14:16;3.37;;;3.00;;
2850;SDS011;1433;49.976;8.342;2023-07-09T14:16:44;3.92;;;3.52;;
2850;SDS011;1433;49.976;8.342;2023-07-09T14:19:14;5.50;;;2.87;;
2850;SDS011;1433;49.976;8.342;2023-07-09T14:21:42;3.87;;;3.00;;
2850;SDS011;1433;49.976;8.342;2023-07-09T14:24:17;2.85;;;2.65;;
2850;SDS011;1433;49.976;8.342;2023-07-09T14:26:46;2.80;;;2.60;;
2850;SDS011;1433;49.976;8.342;2023-07-09T14:29:16;3.12;;;2.92;;
2850;SDS011;1433;49.976;8.342;2023-07-09T14:31:44;3.75;;;3.35;;
2850;SDS011;1433;49.976;8.342;2023-07-09T14:34:23;6.28;;;3.02;;
2850;SDS011;1433;49.976;8.342;2023-07-09T14:36:51;3.08;;;2.87;;
2850;SDS011;1433;49.976;8.342;2023-07-09T14:39:19;3.98;;;2.67;;
2850;SDS011;1433;49.976;8.342;2023-07-09T14:41:45;2.60;;;2.40;;
2850;SDS011;1433;49.976;8.342;2023-07-09T14:44:20;4.75;;;2.60;;
2850;SDS011;1433;49.976;8.342;2023-07-09T14:46:52;3.35;;;3.08;;
2850;SDS011;1433;49.976;8.342;2023-07-09T14:49:20;3.90;;;3.60;;
2850;SDS011;1433;49.976;8.342;2023-07-09T14:51:49;3.42;;;3.12;;
2850;SDS011;1433;49.976;8.342;2023-07-09T14:54:24;3.30;;;3.00;;
2850;SDS011;1433;49.976;8.342;2023-07-09T14:56:53;3.08;;;2.83;;
2850;SDS011;1433;49.976;8.342;2023-07-09T14:59:21;8.35;;;2.90;;
2850;SDS011;1433;49.976;8.342;2023-07-09T15:01:47;3.12;;;2.83;;
2850;SDS011;1433;49.976;8.342;2023-07-09T15:04:32;3.27;;;2.98;;
2850;SDS011;1433;49.976;8.342;2023-07-09T15:06:59;4.40;;;2.85;;
2850;SDS011;1433;49.976;8.342;2023-07-09T15:09:26;5.90;;;4.62;;
2850;SDS011;1433;49.976;8.342;2023-07-09T15:11:58;4.45;;;4.05;;
2850;SDS011;1433;49.976;8.342;2023-07-09T15:14:24;6.03;;;5.53;;
2850;SDS011;1433;49.976;8.342;2023-07-09T15:16:53;4.22;;;3.83;;
2850;SDS011;1433;49.976;8.342;2023-07-09T15:19:20;3.50;;;2.95;;
2850;SDS011;1433;49.976;8.342;2023-07-09T15:21:48;2.70;;;2.50;;
2850;SDS011;1433;49.976;8.342;2023-07-09T15:24:18;4.90;;;3.10;;
2850;SDS011;1433;49.976;8.342;2023-07-09T15:26:49;7.12;;;2.55;;
2850;SDS011;1433;49.976;8.342;2023-07-09T15:29:19;3.08;;;2.87;;
2850;SDS011;1433;49.976;8.342;2023-07-09T15:31:45;4.67;;;2.72;;
2850;SDS011;1433;49.976;8.342;2023-07-09T15:34:12;3.12;;;2.83;;
2850;SDS011;1433;49.976;8.342;2023-07-09T15:36:43;5.67;;;4.37;;
2850;SDS011;1433;49.976;8.342;2023-07-09T15:39:13;2.60;;;2.30;;
2850;SDS011;1433;49.976;8.342;2023-07-09T15:41:40;2.60;;;2.33;;
2850;SDS011;1433;49.976;8.342;2023-07-09T15:44:09;7.00;;;3.60;;
2850;SDS011;1433;49.976;8.342;2023-07-09T15:46:50;3.93;;;3.37;;
2850;SDS011;1433;49.976;8.342;2023-07-09T15:49:23;3.13;;;2.63;;
2850;SDS011;1433;49.976;8.342;2023-07-09T15:51:50;2.93;;;2.70;;
2850;SDS011;1433;49.976;8.342;2023-07-09T15:54:17;4.13;;;3.23;;
2850;SDS011;1433;49.976;8.342;2023-07-09T15:56:45;5.73;;;3.23;;
2850;SDS011;1433;49.976;8.342;2023-07-09T16:01:49;4.10;;;3.17;;
2850;SDS011;1433;49.976;8.342;2023-07-09T16:04:32;7.07;;;2.70;;
2850;SDS011;1433;49.976;8.342;2023-07-09T16:06:58;4.80;;;3.53;;
2850;SDS011;1433;49.976;8.342;2023-07-09T16:09:25;2.90;;;2.70;;
2850;SDS011;1433;49.976;8.342;2023-07-09T16:11:52;3.23;;;2.93;;
2850;SDS011;1433;49.976;8.342;2023-07-09T16:17:08;2.63;;;2.43;;
2850;SDS011;1433;49.976;8.342;2023-07-09T16:19:36;6.70;;;3.10;;
2850;SDS011;1433;49.976;8.342;2023-07-09T16:22:03;3.10;;;2.77;;
2850;SDS011;1433;49.976;8.342;2023-07-09T16:24:33;3.43;;;3.17;;